createdAt,value
2019-04-03T00:00:04.773Z,15.02
2019-04-03T00:02:34.853Z,15.00
2019-04-03T00:05:05.131Z,14.94
2019-04-03T00:07:35.897Z,14.94
2019-04-03T00:10:06.634Z,14.91
2019-04-03T00:12:36.558Z,14.88
2019-04-03T00:15:06.341Z,14.82
2019-04-03T00:17:35.723Z,14.82
2019-04-03T00:20:05.559Z,14.83
2019-04-03T00:22:34.797Z,14.81
2019-04-03T00:25:03.989Z,14.78
2019-04-03T00:27:33.174Z,14.79
2019-04-03T00:30:02.280Z,14.77
2019-04-03T00:32:31.428Z,14.74
2019-04-03T00:35:00.571Z,14.77
2019-04-03T00:37:29.669Z,14.75
2019-04-03T00:39:58.786Z,14.74
2019-04-03T00:42:27.895Z,14.75
2019-04-03T00:44:57.229Z,14.74
2019-04-03T00:47:26.373Z,14.74
2019-04-03T00:49:56.877Z,14.76
2019-04-03T00:52:27.584Z,14.74
2019-04-03T00:54:57.196Z,14.72
2019-04-03T00:57:26.906Z,14.74
2019-04-03T00:59:56.984Z,14.71
2019-04-03T01:02:27.944Z,14.67
2019-04-03T01:04:58.411Z,14.61
2019-04-03T01:07:29.310Z,14.57
2019-04-03T01:09:59.590Z,14.54
2019-04-03T01:12:30.907Z,14.53
2019-04-03T01:15:01.618Z,14.50
2019-04-03T01:17:30.670Z,14.52
2019-04-03T01:19:59.846Z,14.47
2019-04-03T01:22:28.913Z,14.44
2019-04-03T01:24:58.064Z,14.41
2019-04-03T01:27:27.206Z,14.37
2019-04-03T01:29:56.352Z,14.33
2019-04-03T01:32:25.468Z,14.29
2019-04-03T01:34:54.657Z,14.22
2019-04-03T01:37:23.863Z,14.18
2019-04-03T01:39:53.055Z,14.16
2019-04-03T01:42:22.549Z,14.16
2019-04-03T01:44:51.941Z,14.14
2019-04-03T01:47:21.017Z,14.14
2019-04-03T01:49:50.096Z,14.12
2019-04-03T01:52:19.182Z,14.02
2019-04-03T01:54:48.277Z,14.00
2019-04-03T01:57:17.476Z,13.99
2019-04-03T01:59:46.602Z,14.01
2019-04-03T02:02:15.696Z,14.02
2019-04-03T02:04:44.790Z,14.04
2019-04-03T02:07:14.864Z,14.01
2019-04-03T02:09:46.142Z,14.05
2019-04-03T02:12:15.123Z,14.06
2019-04-03T02:14:44.282Z,14.07
2019-04-03T02:17:13.392Z,14.05
2019-04-03T02:19:42.577Z,14.07
2019-04-03T02:22:11.671Z,14.05
2019-04-03T02:24:41.037Z,14.03
2019-04-03T02:27:10.206Z,14.03
2019-04-03T02:29:39.863Z,13.99
2019-04-03T02:32:09.722Z,13.97
2019-04-03T02:34:38.965Z,13.95
2019-04-03T02:37:08.090Z,13.95
2019-04-03T02:39:37.215Z,13.94
2019-04-03T02:42:08.870Z,13.97
2019-04-03T02:44:37.292Z,13.97
2019-04-03T02:47:06.417Z,13.97
2019-04-03T02:49:35.551Z,13.97
2019-04-03T02:52:04.708Z,13.96
2019-04-03T02:54:36.451Z,13.98
2019-04-03T02:57:05.770Z,14.00
2019-04-03T02:59:34.838Z,14.00
2019-04-03T03:02:03.944Z,13.98
2019-04-03T03:04:33.064Z,13.98
2019-04-03T03:07:04.479Z,13.96
2019-04-03T03:09:33.871Z,13.99
2019-04-03T03:12:03.050Z,14.00
2019-04-03T03:14:32.213Z,13.98
2019-04-03T03:17:01.360Z,13.98
2019-04-03T03:19:33.272Z,13.97
2019-04-03T03:22:01.463Z,13.98
2019-04-03T03:24:30.857Z,13.98
2019-04-03T03:26:59.993Z,13.97
2019-04-03T03:29:29.394Z,13.95
2019-04-03T03:32:10.797Z,13.92
2019-04-03T03:34:47.647Z,13.91
2019-04-03T03:37:03.141Z,13.87
2019-04-03T03:39:31.128Z,13.87
2019-04-03T03:42:00.587Z,13.81
2019-04-03T03:44:29.754Z,13.78
2019-04-03T03:47:01.094Z,13.77
2019-04-03T03:49:29.904Z,13.76
2019-04-03T03:52:02.742Z,13.74
2019-04-03T03:54:29.885Z,13.72
2019-04-03T03:56:59.142Z,13.68
2019-04-03T03:59:28.379Z,13.66
2019-04-03T04:01:57.410Z,13.63
2019-04-03T04:04:26.526Z,13.63
2019-04-03T04:06:55.595Z,13.58
2019-04-03T04:09:24.760Z,13.58
2019-04-03T04:11:53.845Z,13.57
2019-04-03T04:14:23.504Z,13.57
2019-04-03T04:16:53.518Z,13.58
2019-04-03T04:19:22.913Z,13.58
2019-04-03T04:21:52.097Z,13.59
2019-04-03T04:24:21.280Z,13.60
2019-04-03T04:26:50.621Z,13.58
2019-04-03T04:29:19.815Z,13.57
2019-04-03T04:31:48.908Z,13.57
2019-04-03T04:34:18.845Z,13.57
2019-04-03T04:36:48.961Z,13.59
2019-04-03T04:39:18.338Z,13.58
2019-04-03T04:41:47.442Z,13.60
2019-04-03T04:44:16.820Z,13.61
2019-04-03T04:46:46.029Z,13.62
2019-04-03T04:49:15.176Z,13.63
2019-04-03T04:51:44.314Z,13.65
2019-04-03T04:54:13.460Z,13.67
2019-04-03T04:56:42.830Z,13.66
2019-04-03T04:59:13.572Z,13.66
2019-04-03T05:01:43.164Z,13.64
2019-04-03T05:04:15.037Z,13.65
2019-04-03T05:06:43.090Z,13.64
2019-04-03T05:09:12.443Z,13.63
2019-04-03T05:11:41.533Z,13.64
2019-04-03T05:14:11.209Z,13.64
2019-04-03T05:16:40.400Z,13.65
2019-04-03T05:19:15.839Z,13.65
2019-04-03T05:21:40.904Z,13.64
2019-04-03T05:24:13.611Z,13.65
2019-04-03T05:26:41.792Z,13.65
2019-04-03T05:29:11.023Z,13.61
2019-04-03T05:31:40.616Z,13.60
2019-04-03T05:34:13.698Z,13.58
2019-04-03T05:36:43.196Z,13.56
2019-04-03T05:39:12.473Z,13.55
2019-04-03T05:41:42.180Z,13.54
2019-04-03T05:44:11.334Z,13.51
2019-04-03T05:46:40.489Z,13.53
2019-04-03T05:49:10.993Z,13.53
2019-04-03T05:51:40.275Z,13.55
2019-04-03T05:54:09.504Z,13.53
2019-04-03T05:56:38.661Z,13.54
2019-04-03T05:59:07.772Z,13.53
2019-04-03T06:01:36.904Z,13.54
2019-04-03T06:04:06.188Z,13.55
2019-04-03T06:06:35.268Z,13.55
2019-04-03T06:09:05.834Z,13.54
2019-04-03T06:11:35.065Z,13.52
2019-04-03T06:14:04.155Z,13.52
2019-04-03T06:16:33.311Z,13.52
2019-04-03T06:19:02.412Z,13.52
2019-04-03T06:21:31.587Z,13.51
2019-04-03T06:24:00.708Z,13.51
2019-04-03T06:26:29.882Z,13.51
2019-04-03T06:28:59.063Z,13.51
2019-04-03T06:31:28.899Z,13.50
2019-04-03T06:33:58.141Z,13.48
2019-04-03T06:36:27.291Z,13.48
2019-04-03T06:38:59.237Z,13.47
2019-04-03T06:41:28.375Z,13.47
2019-04-03T06:43:59.207Z,13.47
2019-04-03T06:46:29.802Z,13.45
2019-04-03T06:48:59.166Z,13.43
2019-04-03T06:51:28.324Z,13.42
2019-04-03T06:53:59.553Z,13.45
2019-04-03T06:56:28.344Z,13.49
2019-04-03T06:58:57.406Z,13.45
2019-04-03T07:01:26.556Z,13.47
2019-04-03T07:03:55.628Z,13.51
2019-04-03T07:06:24.794Z,13.55
2019-04-03T07:08:53.954Z,13.57
2019-04-03T07:11:24.103Z,13.56
2019-04-03T07:13:54.357Z,13.58
2019-04-03T07:16:23.891Z,13.53
2019-04-03T07:18:53.010Z,13.53
2019-04-03T07:21:22.828Z,13.57
2019-04-03T07:23:52.689Z,13.61
2019-04-03T07:26:21.907Z,13.62
2019-04-03T07:28:51.097Z,13.60
2019-04-03T07:31:23.236Z,13.60
2019-04-03T07:33:51.209Z,13.61
2019-04-03T07:36:20.399Z,13.65
2019-04-03T07:38:49.876Z,13.70
2019-04-03T07:41:19.078Z,13.74
2019-04-03T07:43:48.434Z,13.76
2019-04-03T07:46:17.582Z,13.81
2019-04-03T07:48:46.876Z,13.85
2019-04-03T07:51:16.136Z,13.84
2019-04-03T07:53:45.472Z,13.85
2019-04-03T07:56:14.622Z,13.92
2019-04-03T07:58:43.837Z,14.00
2019-04-03T08:01:12.973Z,14.05
2019-04-03T08:03:42.089Z,14.08
2019-04-03T08:06:11.216Z,14.12
2019-04-03T08:08:40.359Z,14.09
2019-04-03T08:11:09.648Z,14.12
2019-04-03T08:13:39.183Z,14.13
2019-04-03T08:16:10.024Z,14.14
2019-04-03T08:18:39.317Z,14.18
2019-04-03T08:21:08.977Z,14.21
2019-04-03T08:23:38.233Z,14.21
2019-04-03T08:26:07.421Z,14.19
2019-04-03T08:28:36.630Z,14.12
2019-04-03T08:31:05.702Z,14.07
2019-04-03T08:33:35.391Z,14.07
2019-04-03T08:36:06.664Z,14.08
2019-04-03T08:38:35.466Z,14.05
2019-04-03T08:41:04.638Z,14.02
2019-04-03T08:43:33.747Z,14.05
2019-04-03T08:46:03.084Z,13.97
2019-04-03T08:48:32.217Z,13.93
2019-04-03T08:51:03.015Z,13.95
2019-04-03T08:53:32.157Z,13.97
2019-04-03T08:56:01.887Z,14.05
2019-04-03T08:58:31.131Z,14.09
2019-04-03T09:01:01.894Z,14.19
2019-04-03T09:03:31.325Z,14.29
2019-04-03T09:06:00.447Z,14.39
2019-04-03T09:08:29.599Z,14.55
2019-04-03T09:10:58.784Z,14.57
2019-04-03T09:13:27.995Z,14.56
2019-04-03T09:15:59.352Z,14.49
2019-04-03T09:18:30.104Z,14.49
2019-04-03T09:20:59.115Z,14.40
2019-04-03T09:23:28.367Z,14.42
2019-04-03T09:25:57.639Z,14.41
2019-04-03T09:28:26.796Z,14.42
2019-04-03T09:30:56.208Z,14.51
2019-04-03T09:33:26.982Z,14.61
2019-04-03T09:35:58.962Z,14.75
2019-04-03T09:38:27.616Z,14.89
2019-04-03T09:40:56.795Z,15.08
2019-04-03T09:43:25.948Z,15.23
2019-04-03T09:45:55.125Z,15.19
2019-04-03T09:48:24.282Z,15.00
2019-04-03T09:50:53.416Z,14.80
2019-04-03T09:53:26.355Z,14.71
2019-04-03T09:55:55.869Z,14.57
2019-04-03T09:58:25.229Z,14.48
2019-04-03T10:00:54.462Z,14.42
2019-04-03T10:03:23.962Z,14.41
2019-04-03T10:05:53.165Z,14.42
2019-04-03T10:08:22.260Z,14.50
2019-04-03T10:10:51.429Z,14.49
2019-04-03T10:13:20.606Z,14.55
2019-04-03T10:15:49.763Z,14.63
2019-04-03T10:18:21.813Z,14.69
2019-04-03T10:20:49.912Z,14.78
2019-04-03T10:23:19.060Z,15.07
2019-04-03T10:25:48.316Z,15.47
2019-04-03T10:28:17.559Z,15.70
2019-04-03T10:30:46.810Z,15.85
2019-04-03T10:33:15.987Z,16.09
2019-04-03T10:35:47.341Z,16.40
2019-04-03T10:38:17.948Z,16.65
2019-04-03T10:40:46.899Z,17.23
2019-04-03T10:43:16.073Z,17.81
2019-04-03T10:45:45.313Z,17.93
2019-04-03T10:48:14.462Z,17.89
2019-04-03T10:50:43.717Z,17.83
2019-04-03T10:53:12.830Z,17.78
2019-04-03T10:55:41.981Z,17.70
2019-04-03T10:58:11.082Z,17.51
2019-04-03T11:00:40.311Z,17.27
2019-04-03T11:03:09.529Z,16.94
2019-04-03T11:05:39.393Z,16.83
2019-04-03T11:08:08.605Z,16.77
2019-04-03T11:10:37.780Z,16.73
2019-04-03T11:13:06.885Z,16.72
2019-04-03T11:15:36.112Z,16.73
2019-04-03T11:18:05.249Z,16.71
2019-04-03T11:20:36.077Z,16.79
2019-04-03T11:23:07.691Z,16.86
2019-04-03T11:25:36.265Z,16.91
2019-04-03T11:28:06.353Z,17.00
2019-04-03T11:30:35.943Z,17.60
2019-04-03T11:33:05.080Z,18.03
2019-04-03T11:35:34.249Z,18.62
2019-04-03T11:38:12.636Z,18.90
2019-04-03T11:40:34.649Z,18.93
2019-04-03T11:43:03.909Z,18.80
2019-04-03T11:45:33.768Z,18.42
2019-04-03T11:48:02.910Z,18.13
2019-04-03T11:50:32.373Z,17.93
2019-04-03T11:53:04.879Z,17.58
2019-04-03T11:55:32.438Z,17.34
2019-04-03T11:58:01.558Z,17.24
2019-04-03T12:00:35.220Z,17.13
2019-04-03T12:03:04.737Z,17.17
2019-04-03T12:05:33.912Z,17.31
2019-04-03T12:08:03.118Z,17.39
2019-04-03T12:10:32.801Z,17.57
2019-04-03T12:13:04.317Z,17.55
2019-04-03T12:15:34.762Z,17.59
2019-04-03T12:18:03.992Z,17.64
2019-04-03T12:20:33.114Z,17.73
2019-04-03T12:23:02.280Z,17.73
2019-04-03T12:25:34.174Z,17.68
2019-04-03T12:28:02.661Z,17.54
2019-04-03T12:30:31.895Z,17.38
2019-04-03T12:33:01.086Z,17.14
2019-04-03T12:35:30.259Z,16.91
2019-04-03T12:37:59.402Z,16.72
2019-04-03T12:40:30.283Z,16.57
2019-04-03T12:42:59.981Z,16.41
2019-04-03T12:45:29.312Z,16.21
2019-04-03T12:47:58.922Z,16.16
2019-04-03T12:50:28.767Z,16.15
2019-04-03T12:52:58.276Z,16.18
2019-04-03T12:55:27.328Z,16.16
2019-04-03T12:57:56.498Z,16.19
2019-04-03T13:00:25.892Z,16.21
2019-04-03T13:02:55.400Z,16.30
2019-04-03T13:05:24.502Z,16.37
2019-04-03T13:07:53.707Z,16.49
2019-04-03T13:10:22.777Z,16.68
2019-04-03T13:12:54.608Z,16.83
2019-04-03T13:15:22.915Z,16.87
2019-04-03T13:17:52.208Z,16.96
2019-04-03T13:20:21.584Z,17.12
2019-04-03T13:22:50.809Z,17.21
2019-04-03T13:25:21.439Z,17.37
2019-04-03T13:27:50.958Z,17.43
2019-04-03T13:30:20.943Z,17.51
2019-04-03T13:32:58.698Z,17.56
2019-04-03T13:35:21.926Z,17.59
2019-04-03T13:37:53.106Z,17.61
2019-04-03T13:40:22.688Z,17.49
2019-04-03T13:42:51.930Z,17.53
2019-04-03T13:45:21.484Z,17.52
2019-04-03T13:47:51.011Z,17.54
2019-04-03T13:50:22.294Z,17.52
2019-04-03T13:52:51.390Z,17.48
2019-04-03T13:55:20.932Z,17.53
2019-04-03T13:57:50.849Z,17.52
2019-04-03T14:00:23.005Z,17.47
2019-04-03T14:02:51.626Z,17.34
2019-04-03T14:05:20.953Z,17.20
2019-04-03T14:07:51.404Z,17.07
2019-04-03T14:10:20.904Z,17.03
2019-04-03T14:12:50.135Z,16.99
2019-04-03T14:15:21.087Z,16.97
2019-04-03T14:17:56.452Z,16.93
2019-04-03T14:20:23.760Z,16.89
2019-04-03T14:22:52.261Z,16.90
2019-04-03T14:25:23.753Z,16.87
2019-04-03T14:27:52.593Z,16.84
2019-04-03T14:30:21.902Z,16.82
2019-04-03T14:32:52.836Z,16.84
2019-04-03T14:35:45.190Z,16.83
2019-04-03T14:37:53.230Z,16.86
2019-04-03T14:40:22.536Z,16.86
2019-04-03T14:42:52.171Z,16.75
2019-04-03T14:45:22.433Z,16.68
2019-04-03T14:47:54.212Z,16.49
2019-04-03T14:50:26.406Z,16.37
2019-04-03T14:52:55.665Z,16.32
2019-04-03T14:55:26.660Z,16.15
2019-04-03T14:57:56.354Z,16.02
2019-04-03T15:00:30.323Z,15.99
2019-04-03T15:02:58.605Z,15.94
2019-04-03T15:05:28.742Z,15.94
2019-04-03T15:07:58.731Z,15.81
2019-04-03T15:10:30.638Z,15.78
2019-04-03T15:13:00.563Z,15.73
2019-04-03T15:15:30.488Z,15.67
2019-04-03T15:18:02.278Z,15.70
2019-04-03T15:20:33.450Z,15.70
2019-04-03T15:23:05.548Z,15.72
2019-04-03T15:25:41.279Z,15.66
2019-04-03T15:28:10.363Z,15.67
2019-04-03T15:30:41.642Z,15.67
2019-04-03T15:33:10.661Z,15.58
2019-04-03T15:35:40.209Z,15.52
2019-04-03T15:38:12.520Z,15.52
2019-04-03T15:41:09.119Z,15.49
2019-04-03T15:43:38.275Z,15.47
2019-04-03T15:46:07.552Z,15.42
2019-04-03T15:48:39.914Z,15.37
2019-04-03T15:51:08.758Z,15.30
2019-04-03T15:53:38.195Z,15.31
2019-04-03T15:56:12.986Z,15.29
2019-04-03T15:58:41.139Z,15.29
2019-04-03T16:01:10.349Z,15.24
2019-04-03T16:03:39.899Z,15.19
2019-04-03T16:06:09.720Z,15.20
2019-04-03T16:08:39.079Z,15.19
2019-04-03T16:11:09.601Z,15.16
2019-04-03T16:13:39.723Z,15.13
2019-04-03T16:16:09.464Z,15.10
2019-04-03T16:18:39.111Z,15.05
2019-04-03T16:21:08.478Z,15.00
2019-04-03T16:23:38.674Z,14.93
2019-04-03T16:26:07.964Z,14.90
2019-04-03T16:28:37.217Z,14.92
2019-04-03T16:31:06.857Z,14.85
2019-04-03T16:33:46.657Z,14.80
2019-04-03T16:36:17.064Z,14.72
2019-04-03T16:38:46.896Z,14.64
2019-04-03T16:41:19.768Z,14.51
2019-04-03T16:43:49.140Z,14.41
2019-04-03T16:46:18.735Z,14.32
2019-04-03T16:48:49.853Z,14.23
2019-04-03T16:51:19.420Z,14.16
2019-04-03T16:53:49.446Z,14.08
2019-04-03T16:56:19.758Z,13.99
2019-04-03T16:58:49.275Z,13.25
2019-04-03T17:01:19.916Z,13.82
2019-04-03T17:03:49.708Z,13.83
2019-04-03T17:06:19.180Z,13.72
2019-04-03T17:08:48.835Z,13.73
2019-04-03T17:11:18.234Z,13.75
2019-04-03T17:13:47.727Z,13.72
2019-04-03T17:16:17.714Z,13.68
2019-04-03T17:18:47.951Z,13.66
2019-04-03T17:21:19.485Z,13.65
2019-04-03T17:23:50.144Z,13.65
2019-04-03T17:26:19.576Z,13.61
2019-04-03T17:29:00.452Z,13.57
2019-04-03T17:31:22.353Z,13.54
2019-04-03T17:33:50.835Z,13.54
2019-04-03T17:36:20.357Z,13.51
2019-04-03T17:38:49.560Z,13.45
2019-04-03T17:41:18.862Z,13.47
2019-04-03T17:43:48.186Z,13.47
2019-04-03T17:46:17.785Z,13.44
2019-04-03T17:48:47.878Z,13.37
2019-04-03T17:51:17.121Z,13.30
2019-04-03T17:53:46.367Z,13.29
2019-04-03T17:56:15.565Z,13.27
2019-04-03T17:58:47.625Z,13.22
2019-04-03T18:01:15.710Z,13.16
2019-04-03T18:03:44.947Z,13.15
2019-04-03T18:06:14.363Z,13.12
2019-04-03T18:08:44.104Z,13.05
2019-04-03T18:11:13.863Z,13.05
2019-04-03T18:13:43.109Z,12.98
2019-04-03T18:16:13.434Z,12.89
2019-04-03T18:18:42.795Z,12.79
2019-04-03T18:21:13.107Z,12.75
2019-04-03T18:23:42.398Z,12.73
2019-04-03T18:26:11.582Z,12.68
2019-04-03T18:28:40.827Z,12.70
2019-04-03T18:31:10.121Z,12.63
2019-04-03T18:33:39.312Z,12.65
2019-04-03T18:36:08.517Z,12.58
2019-04-03T18:38:38.571Z,12.58
2019-04-03T18:41:08.316Z,12.52
2019-04-03T18:43:37.520Z,12.48
2019-04-03T18:46:06.756Z,12.49
2019-04-03T18:48:35.945Z,12.47
2019-04-03T18:51:06.495Z,12.45
2019-04-03T18:53:35.741Z,12.42
2019-04-03T18:56:05.300Z,12.42
2019-04-03T18:58:34.480Z,12.37
2019-04-03T19:01:05.471Z,12.32
2019-04-03T19:03:35.015Z,12.33
2019-04-03T19:06:05.708Z,12.26
2019-04-03T19:08:34.951Z,12.28
2019-04-03T19:11:09.364Z,12.23
2019-04-03T19:13:35.322Z,12.21
2019-04-03T19:16:04.479Z,12.26
2019-04-03T19:18:35.086Z,12.28
2019-04-03T19:21:04.706Z,12.30
2019-04-03T19:23:34.181Z,12.24
2019-04-03T19:26:03.669Z,12.26
2019-04-03T19:28:34.616Z,12.27
2019-04-03T19:31:04.223Z,12.27
2019-04-03T19:33:33.475Z,12.27
2019-04-03T19:36:02.800Z,12.21
2019-04-03T19:38:32.134Z,12.26
2019-04-03T19:41:01.835Z,12.22
2019-04-03T19:43:31.005Z,12.22
2019-04-03T19:46:00.408Z,12.21
2019-04-03T19:48:29.659Z,12.14
2019-04-03T19:50:58.866Z,12.12
2019-04-03T19:53:28.198Z,12.16
2019-04-03T19:55:57.381Z,12.11
2019-04-03T19:58:28.934Z,12.13
2019-04-03T20:00:57.450Z,12.11
2019-04-03T20:03:26.644Z,12.10
2019-04-03T20:05:55.906Z,12.07
2019-04-03T20:08:25.139Z,12.10
2019-04-03T20:10:54.385Z,12.06
2019-04-03T20:13:27.844Z,12.03
2019-04-03T20:15:54.904Z,12.06
2019-04-03T20:18:25.923Z,12.00
2019-04-03T20:20:55.090Z,12.00
2019-04-03T20:23:25.349Z,12.00
2019-04-03T20:25:54.646Z,12.01
2019-04-03T20:28:24.402Z,12.02
2019-04-03T20:30:53.815Z,11.98
2019-04-03T20:33:23.054Z,11.99
2019-04-03T20:35:52.357Z,12.00
2019-04-03T20:38:21.780Z,12.00
2019-04-03T20:40:50.957Z,12.03
2019-04-03T20:43:20.205Z,12.02
2019-04-03T20:45:50.331Z,11.98
2019-04-03T20:48:19.597Z,11.97
2019-04-03T20:50:48.940Z,11.92
2019-04-03T20:53:18.801Z,11.95
2019-04-03T20:55:48.063Z,11.87
2019-04-03T20:58:17.333Z,11.88
2019-04-03T21:00:49.269Z,11.87
2019-04-03T21:03:17.598Z,11.81
2019-04-03T21:05:48.869Z,11.81
2019-04-03T21:08:17.807Z,11.79
2019-04-03T21:10:47.017Z,11.79
2019-04-03T21:13:16.142Z,11.78
2019-04-03T21:15:46.045Z,11.78
2019-04-03T21:18:15.460Z,11.76
2019-04-03T21:20:44.785Z,11.74
2019-04-03T21:23:14.053Z,11.71
2019-04-03T21:25:43.211Z,11.71
2019-04-03T21:28:12.553Z,11.71
2019-04-03T21:30:41.781Z,11.72
2019-04-03T21:33:11.027Z,11.70
2019-04-03T21:35:40.303Z,11.64
2019-04-03T21:38:10.849Z,11.60
2019-04-03T21:40:40.763Z,11.60
2019-04-03T21:43:10.374Z,11.53
2019-04-03T21:45:39.531Z,11.54
2019-04-03T21:48:08.852Z,11.55
2019-04-03T21:50:38.087Z,11.56
2019-04-03T21:53:07.347Z,11.58
2019-04-03T21:55:36.636Z,11.58
2019-04-03T21:58:06.940Z,11.55
2019-04-03T22:01:18.059Z,11.55
2019-04-03T22:03:50.620Z,11.55
2019-04-03T22:06:18.702Z,11.51
2019-04-03T22:08:47.956Z,11.58
2019-04-03T22:11:16.999Z,11.56
2019-04-03T22:13:46.223Z,11.58
2019-04-03T22:16:15.398Z,11.57
2019-04-03T22:18:45.356Z,11.55
2019-04-03T22:21:14.527Z,11.56
2019-04-03T22:23:44.128Z,11.52
2019-04-03T22:26:13.282Z,11.52
2019-04-03T22:28:44.150Z,11.50
2019-04-03T22:31:13.269Z,11.45
2019-04-03T22:33:42.436Z,11.45
2019-04-03T22:36:11.545Z,11.44
2019-04-03T22:38:40.703Z,11.44
2019-04-03T22:41:12.244Z,11.41
2019-04-03T22:43:40.864Z,11.43
2019-04-03T22:46:09.978Z,11.46
2019-04-03T22:48:39.166Z,11.46
2019-04-03T22:51:09.098Z,11.37
2019-04-03T22:53:39.893Z,11.34
2019-04-03T22:56:09.151Z,11.37
2019-04-03T22:58:38.333Z,11.36
2019-04-03T23:01:07.442Z,11.31
2019-04-03T23:03:36.591Z,11.34
2019-04-03T23:06:05.735Z,11.35
2019-04-03T23:08:34.910Z,11.37
2019-04-03T23:11:05.253Z,11.37
2019-04-03T23:13:35.766Z,11.38
2019-04-03T23:16:05.266Z,11.35
2019-04-03T23:18:34.660Z,11.37
2019-04-03T23:21:03.746Z,11.37
2019-04-03T23:23:32.900Z,11.38
2019-04-03T23:26:01.997Z,11.35
2019-04-03T23:28:33.753Z,11.34
2019-04-03T23:31:02.030Z,11.31
2019-04-03T23:33:31.181Z,11.33
2019-04-03T23:36:00.394Z,11.32
2019-04-03T23:38:29.593Z,11.30
2019-04-03T23:40:58.758Z,11.29
2019-04-03T23:43:27.882Z,11.27
2019-04-03T23:45:57.044Z,11.23
2019-04-03T23:48:26.180Z,11.21
2019-04-03T23:50:55.314Z,11.20
2019-04-03T23:53:24.402Z,11.22
2019-04-03T23:55:53.606Z,11.22
2019-04-03T23:58:22.720Z,11.22
